Portada
METAR-TAF:

METAR-TAF

Aeroports :

Tirana, Albània

latitud: 41-20N, longitud: 019-47E, altitud: 89 m

Observació

L'informe es va fer fa 32 minuts, a les 22:50 UTC
Vent 2 kt del Sud-Oest
Temperatura 27°C
Humitat 74%
Pressió 1013 hPa
Visibilitat 10 km o més
sense núvols per sota de 1500 mi sense presència de cumulonimbus.

METAR: LATI 182250Z 23002KT CAVOK 27/22 Q1013 NOSIG

Hora: 01:22 (23:22 UTC)

Pronòstic

L'informe es va fer fa 6 hores i 22 minuts, a les 17:00 UTC
Pronòstic vàlid del 18 a les 18 UTC al 19 a les 18 UTC
Vent 3 kt amb direcció variable
Visibilitat 10 km o més
sense núvols per sota de 1500 mi sense presència de cumulonimbus.
Temporalment
l' 19 a les 10 UTC al 19 a les 17 UTC
Vent 10 kt del Nord-Oest
Escasses núvols a una alçada de 4000 ft, Cumulonimbus.

TAF: LATI 181700Z 1818/1918 VRB03KT CAVOK TX38/1912Z TN22/1903Z TEMPO 1910/1917 32010KT FEW040CB

Observacions i pronòstics meteorològics de més de 4000 aeroports (METAR i TAF).

Les estacions disponibles són els punts grocs i vermells al mapa.

Posi el ratolí al punt desitjat per veure el nom de l'estació.

Feu clic per veure les observacions i els pronòstics meteorològics.

Per canviar el mapa: feu clic els botons verds amb una creu de color negre per apropar; al botó verd amb un guió per allunyar la imatge; o en les fletxes verdes per a mapes adjacents.


METAR-TAF: